sensor_id;sensor_type;location;lat;lon;timestamp;pressure;altitude;pressure_sealevel;temperature
45976;BMP280;31696;42.668;23.322;2023-12-22T00:01:56;93190.88;;;2.11
45976;BMP280;31696;42.668;23.322;2023-12-22T00:03:56;93186.75;;;2.08
45976;BMP280;31696;42.668;23.322;2023-12-22T00:05:57;93175.81;;;2.08
45976;BMP280;31696;42.668;23.322;2023-12-22T00:07:57;93180.00;;;2.18
45976;BMP280;31696;42.668;23.322;2023-12-22T00:09:57;93175.13;;;2.49
45976;BMP280;31696;42.668;23.322;2023-12-22T00:11:58;93181.84;;;2.39
45976;BMP280;31696;42.668;23.322;2023-12-22T00:13:58;93171.50;;;2.03
45976;BMP280;31696;42.668;23.322;2023-12-22T00:15:59;93166.41;;;2.31
45976;BMP280;31696;42.668;23.322;2023-12-22T00:17:59;93159.53;;;2.47
45976;BMP280;31696;42.668;23.322;2023-12-22T00:19:59;93168.13;;;2.08
45976;BMP280;31696;42.668;23.322;2023-12-22T00:22:03;93146.38;;;2.01
45976;BMP280;31696;42.668;23.322;2023-12-22T00:24:03;93161.75;;;2.01
45976;BMP280;31696;42.668;23.322;2023-12-22T00:26:07;93163.94;;;1.77
45976;BMP280;31696;42.668;23.322;2023-12-22T00:28:07;93152.22;;;2.23
45976;BMP280;31696;42.668;23.322;2023-12-22T00:32:08;93141.97;;;2.23
45976;BMP280;31696;42.668;23.322;2023-12-22T00:34:09;93131.44;;;2.34
45976;BMP280;31696;42.668;23.322;2023-12-22T00:36:10;93133.22;;;2.46
45976;BMP280;31696;42.668;23.322;2023-12-22T00:38:10;93135.03;;;2.59
45976;BMP280;31696;42.668;23.322;2023-12-22T00:40:10;93119.09;;;2.53
45976;BMP280;31696;42.668;23.322;2023-12-22T00:42:11;93125.78;;;2.28
45976;BMP280;31696;42.668;23.322;2023-12-22T00:44:11;93123.19;;;1.99
45976;BMP280;31696;42.668;23.322;2023-12-22T00:46:12;93116.69;;;1.98
45976;BMP280;31696;42.668;23.322;2023-12-22T00:48:13;93122.41;;;1.91
45976;BMP280;31696;42.668;23.322;2023-12-22T00:50:13;93124.94;;;2.25
45976;BMP280;31696;42.668;23.322;2023-12-22T00:52:13;93130.31;;;2.42
45976;BMP280;31696;42.668;23.322;2023-12-22T00:54:14;93102.00;;;2.48
45976;BMP280;31696;42.668;23.322;2023-12-22T00:56:14;93094.91;;;2.33
45976;BMP280;31696;42.668;23.322;2023-12-22T00:58:14;93113.06;;;2.43
45976;BMP280;31696;42.668;23.322;2023-12-22T01:00:15;93113.50;;;2.54
45976;BMP280;31696;42.668;23.322;2023-12-22T01:02:16;93105.81;;;2.54
45976;BMP280;31696;42.668;23.322;2023-12-22T01:04:16;93100.06;;;2.69
45976;BMP280;31696;42.668;23.322;2023-12-22T01:06:17;93116.47;;;2.74
45976;BMP280;31696;42.668;23.322;2023-12-22T01:08:17;93114.56;;;2.67
45976;BMP280;31696;42.668;23.322;2023-12-22T01:10:17;93134.66;;;2.83
45976;BMP280;31696;42.668;23.322;2023-12-22T01:12:18;93128.06;;;2.67
45976;BMP280;31696;42.668;23.322;2023-12-22T01:14:18;93125.31;;;2.65
45976;BMP280;31696;42.668;23.322;2023-12-22T01:16:18;93122.56;;;2.63
45976;BMP280;31696;42.668;23.322;2023-12-22T01:18:21;93117.09;;;2.95
45976;BMP280;31696;42.668;23.322;2023-12-22T01:20:21;93106.34;;;2.96
45976;BMP280;31696;42.668;23.322;2023-12-22T01:22:22;93114.41;;;2.72
45976;BMP280;31696;42.668;23.322;2023-12-22T01:24:23;93112.16;;;2.97
45976;BMP280;31696;42.668;23.322;2023-12-22T01:26:23;93114.75;;;2.69
45976;BMP280;31696;42.668;23.322;2023-12-22T01:28:23;93098.44;;;2.94
45976;BMP280;31696;42.668;23.322;2023-12-22T01:30:24;93112.69;;;2.67
45976;BMP280;31696;42.668;23.322;2023-12-22T01:32:24;93106.34;;;3.04
45976;BMP280;31696;42.668;23.322;2023-12-22T01:34:25;93098.72;;;2.76
45976;BMP280;31696;42.668;23.322;2023-12-22T01:36:25;93109.16;;;2.78
45976;BMP280;31696;42.668;23.322;2023-12-22T01:38:25;93099.31;;;2.97
45976;BMP280;31696;42.668;23.322;2023-12-22T01:40:26;93090.16;;;2.73
45976;BMP280;31696;42.668;23.322;2023-12-22T01:42:26;93083.91;;;2.82
45976;BMP280;31696;42.668;23.322;2023-12-22T01:44:26;93075.53;;;2.81
45976;BMP280;31696;42.668;23.322;2023-12-22T01:46:27;93084.03;;;2.76
45976;BMP280;31696;42.668;23.322;2023-12-22T01:48:27;93069.75;;;3.03
45976;BMP280;31696;42.668;23.322;2023-12-22T01:50:28;93080.75;;;3.12
45976;BMP280;31696;42.668;23.322;2023-12-22T01:52:29;93075.47;;;2.74
45976;BMP280;31696;42.668;23.322;2023-12-22T01:54:29;93057.94;;;2.93
45976;BMP280;31696;42.668;23.322;2023-12-22T01:56:30;93059.16;;;2.92
45976;BMP280;31696;42.668;23.322;2023-12-22T01:58:30;93072.41;;;2.75
45976;BMP280;31696;42.668;23.322;2023-12-22T02:00:40;93070.19;;;2.79
45976;BMP280;31696;42.668;23.322;2023-12-22T02:02:40;93053.34;;;2.91
45976;BMP280;31696;42.668;23.322;2023-12-22T02:04:43;93075.88;;;2.85
45976;BMP280;31696;42.668;23.322;2023-12-22T02:06:44;93040.63;;;2.78
45976;BMP280;31696;42.668;23.322;2023-12-22T02:08:46;93059.72;;;2.62
45976;BMP280;31696;42.668;23.322;2023-12-22T02:10:46;93056.91;;;2.88
45976;BMP280;31696;42.668;23.322;2023-12-22T02:12:47;93063.06;;;2.85
45976;BMP280;31696;42.668;23.322;2023-12-22T02:14:47;93063.97;;;2.67
45976;BMP280;31696;42.668;23.322;2023-12-22T02:18:48;93039.69;;;3.04
45976;BMP280;31696;42.668;23.322;2023-12-22T02:20:51;93057.47;;;3.02
45976;BMP280;31696;42.668;23.322;2023-12-22T02:22:52;93050.88;;;2.71
45976;BMP280;31696;42.668;23.322;2023-12-22T02:24:52;93054.34;;;2.88
45976;BMP280;31696;42.668;23.322;2023-12-22T02:26:53;93061.56;;;2.97
45976;BMP280;31696;42.668;23.322;2023-12-22T02:28:55;93050.59;;;2.89
45976;BMP280;31696;42.668;23.322;2023-12-22T02:31:25;93049.50;;;2.77
45976;BMP280;31696;42.668;23.322;2023-12-22T02:33:28;93054.41;;;2.60
45976;BMP280;31696;42.668;23.322;2023-12-22T02:35:30;93050.59;;;2.89
45976;BMP280;31696;42.668;23.322;2023-12-22T02:37:32;93055.81;;;3.27
45976;BMP280;31696;42.668;23.322;2023-12-22T02:39:33;93036.66;;;2.62
45976;BMP280;31696;42.668;23.322;2023-12-22T02:41:33;93048.88;;;2.84
45976;BMP280;31696;42.668;23.322;2023-12-22T02:43:34;93041.81;;;2.77
45976;BMP280;31696;42.668;23.322;2023-12-22T02:45:35;93052.97;;;2.87
45976;BMP280;31696;42.668;23.322;2023-12-22T02:47:36;93049.69;;;2.79
45976;BMP280;31696;42.668;23.322;2023-12-22T02:49:36;93050.59;;;2.89
45976;BMP280;31696;42.668;23.322;2023-12-22T02:51:36;93049.41;;;2.90
45976;BMP280;31696;42.668;23.322;2023-12-22T02:53:36;93021.41;;;3.07
45976;BMP280;31696;42.668;23.322;2023-12-22T02:55:37;93020.16;;;2.93
45976;BMP280;31696;42.668;23.322;2023-12-22T02:57:37;93025.28;;;2.93
45976;BMP280;31696;42.668;23.322;2023-12-22T02:59:38;93027.06;;;3.14
45976;BMP280;31696;42.668;23.322;2023-12-22T03:01:38;93024.00;;;3.23
45976;BMP280;31696;42.668;23.322;2023-12-22T03:03:39;93016.81;;;3.14
45976;BMP280;31696;42.668;23.322;2023-12-22T03:05:39;93016.44;;;3.09
45976;BMP280;31696;42.668;23.322;2023-12-22T03:07:39;93020.88;;;3.01
45976;BMP280;31696;42.668;23.322;2023-12-22T03:09:40;93014.03;;;2.96
45976;BMP280;31696;42.668;23.322;2023-12-22T03:11:40;93009.94;;;3.08
45976;BMP280;31696;42.668;23.322;2023-12-22T03:13:41;93015.25;;;3.10
45976;BMP280;31696;42.668;23.322;2023-12-22T03:15:41;93015.47;;;3.20
45976;BMP280;31696;42.668;23.322;2023-12-22T03:17:41;93015.59;;;3.07
45976;BMP280;31696;42.668;23.322;2023-12-22T03:19:42;93013.41;;;3.19
45976;BMP280;31696;42.668;23.322;2023-12-22T03:21:42;93017.53;;;3.37
45976;BMP280;31696;42.668;23.322;2023-12-22T03:23:42;93026.41;;;3.21
45976;BMP280;31696;42.668;23.322;2023-12-22T03:25:42;93029.47;;;3.19
45976;BMP280;31696;42.668;23.322;2023-12-22T03:27:43;93029.47;;;3.19
45976;BMP280;31696;42.668;23.322;2023-12-22T03:29:43;93027.25;;;3.31
45976;BMP280;31696;42.668;23.322;2023-12-22T03:31:45;93025.72;;;3.13
45976;BMP280;31696;42.668;23.322;2023-12-22T03:33:45;93033.22;;;3.26
45976;BMP280;31696;42.668;23.322;2023-12-22T03:35:45;93030.88;;;3.43
45976;BMP280;31696;42.668;23.322;2023-12-22T03:37:46;93030.09;;;2.97
45976;BMP280;31696;42.668;23.322;2023-12-22T03:39:46;93023.59;;;2.88
45976;BMP280;31696;42.668;23.322;2023-12-22T03:41:46;93026.28;;;2.75
45976;BMP280;31696;42.668;23.322;2023-12-22T03:43:47;93020.41;;;3.10
45976;BMP280;31696;42.668;23.322;2023-12-22T03:45:47;93020.22;;;3.24
45976;BMP280;31696;42.668;23.322;2023-12-22T03:47:47;93017.19;;;3.48
45976;BMP280;31696;42.668;23.322;2023-12-22T03:49:48;93025.72;;;3.35
45976;BMP280;31696;42.668;23.322;2023-12-22T03:51:48;93020.94;;;3.32
45976;BMP280;31696;42.668;23.322;2023-12-22T03:53:48;93019.91;;;3.27
45976;BMP280;31696;42.668;23.322;2023-12-22T03:55:49;93024.16;;;3.25
45976;BMP280;31696;42.668;23.322;2023-12-22T03:57:49;93021.97;;;3.21
45976;BMP280;31696;42.668;23.322;2023-12-22T03:59:49;93020.59;;;3.28
45976;BMP280;31696;42.668;23.322;2023-12-22T04:01:50;93016.84;;;3.21
45976;BMP280;31696;42.668;23.322;2023-12-22T04:03:50;93026.91;;;3.27
45976;BMP280;31696;42.668;23.322;2023-12-22T04:05:51;93020.25;;;3.39
45976;BMP280;31696;42.668;23.322;2023-12-22T04:07:51;93019.22;;;3.27
45976;BMP280;31696;42.668;23.322;2023-12-22T04:09:51;93030.00;;;3.33
45976;BMP280;31696;42.668;23.322;2023-12-22T04:11:52;93023.50;;;3.17
45976;BMP280;31696;42.668;23.322;2023-12-22T04:13:52;93022.47;;;3.20
45976;BMP280;31696;42.668;23.322;2023-12-22T04:15:52;93023.84;;;3.36
45976;BMP280;31696;42.668;23.322;2023-12-22T04:17:53;93025.72;;;3.28
45976;BMP280;31696;42.668;23.322;2023-12-22T04:19:53;93018.38;;;3.17
45976;BMP280;31696;42.668;23.322;2023-12-22T04:21:53;93016.25;;;3.00
45976;BMP280;31696;42.668;23.322;2023-12-22T04:23:54;93009.97;;;3.24
45976;BMP280;31696;42.668;23.322;2023-12-22T04:25:54;93017.50;;;3.29
45976;BMP280;31696;42.668;23.322;2023-12-22T04:27:55;93012.53;;;3.16
45976;BMP280;31696;42.668;23.322;2023-12-22T04:29:55;93014.09;;;3.27
45976;BMP280;31696;42.668;23.322;2023-12-22T04:31:55;93010.16;;;3.18
45976;BMP280;31696;42.668;23.322;2023-12-22T04:33:56;93013.41;;;3.34
45976;BMP280;31696;42.668;23.322;2023-12-22T04:35:56;93004.16;;;3.23
45976;BMP280;31696;42.668;23.322;2023-12-22T04:37:56;93001.44;;;3.36
45976;BMP280;31696;42.668;23.322;2023-12-22T04:39:57;93002.44;;;3.10
45976;BMP280;31696;42.668;23.322;2023-12-22T04:41:57;92997.66;;;3.30
45976;BMP280;31696;42.668;23.322;2023-12-22T04:43:58;92997.31;;;3.26
45976;BMP280;31696;42.668;23.322;2023-12-22T04:45:58;92992.22;;;3.33
45976;BMP280;31696;42.668;23.322;2023-12-22T04:47:58;92988.25;;;3.25
45976;BMP280;31696;42.668;23.322;2023-12-22T04:49:59;92994.06;;;3.25
45976;BMP280;31696;42.668;23.322;2023-12-22T04:52:00;92985.03;;;3.32
45976;BMP280;31696;42.668;23.322;2023-12-22T04:54:00;92995.97;;;3.32
45976;BMP280;31696;42.668;23.322;2023-12-22T04:56:01;92993.25;;;3.38
45976;BMP280;31696;42.668;23.322;2023-12-22T04:58:01;92997.66;;;3.15
45976;BMP280;31696;42.668;23.322;2023-12-22T05:00:01;92997.16;;;3.16
45976;BMP280;31696;42.668;23.322;2023-12-22T05:02:02;92990.16;;;3.32
45976;BMP280;31696;42.668;23.322;2023-12-22T05:04:02;93001.41;;;3.14
45976;BMP280;31696;42.668;23.322;2023-12-22T05:06:03;92980.75;;;3.27
45976;BMP280;31696;42.668;23.322;2023-12-22T05:08:04;92985.03;;;3.17
45976;BMP280;31696;42.668;23.322;2023-12-22T05:10:04;92992.88;;;3.26
45976;BMP280;31696;42.668;23.322;2023-12-22T05:12:05;92973.03;;;3.49
45976;BMP280;31696;42.668;23.322;2023-12-22T05:14:05;92982.59;;;3.49
45976;BMP280;31696;42.668;23.322;2023-12-22T05:16:05;92978.72;;;3.33
45976;BMP280;31696;42.668;23.322;2023-12-22T05:18:06;92973.72;;;3.50
45976;BMP280;31696;42.668;23.322;2023-12-22T05:20:06;92969.78;;;3.49
45976;BMP280;31696;42.668;23.322;2023-12-22T05:22:07;92964.81;;;3.28
45976;BMP280;31696;42.668;23.322;2023-12-22T05:24:07;92961.94;;;3.47
45976;BMP280;31696;42.668;23.322;2023-12-22T05:26:07;92963.31;;;3.33
45976;BMP280;31696;42.668;23.322;2023-12-22T05:28:08;92980.59;;;3.40
45976;BMP280;31696;42.668;23.322;2023-12-22T05:30:08;92974.94;;;3.34
45976;BMP280;31696;42.668;23.322;2023-12-22T05:32:09;92966.53;;;3.26
45976;BMP280;31696;42.668;23.322;2023-12-22T05:34:09;92974.78;;;3.47
45976;BMP280;31696;42.668;23.322;2023-12-22T05:36:10;93019.59;;;3.61
45976;BMP280;31696;42.668;23.322;2023-12-22T05:38:10;92998.69;;;3.34
45976;BMP280;31696;42.668;23.322;2023-12-22T05:40:11;92985.22;;;3.41
45976;BMP280;31696;42.668;23.322;2023-12-22T05:42:11;92992.38;;;3.35
45976;BMP280;31696;42.668;23.322;2023-12-22T05:44:12;92994.09;;;3.55
45976;BMP280;31696;42.668;23.322;2023-12-22T05:46:12;92991.19;;;3.36
45976;BMP280;31696;42.668;23.322;2023-12-22T05:48:13;92989.81;;;3.28
45976;BMP280;31696;42.668;23.322;2023-12-22T05:50:13;92978.84;;;3.65
45976;BMP280;31696;42.668;23.322;2023-12-22T05:52:13;92963.47;;;3.27
45976;BMP280;31696;42.668;23.322;2023-12-22T05:54:14;92991.97;;;2.93
45976;BMP280;31696;42.668;23.322;2023-12-22T05:56:18;92979.56;;;3.35
45976;BMP280;31696;42.668;23.322;2023-12-22T05:58:19;92979.69;;;2.99
45976;BMP280;31696;42.668;23.322;2023-12-22T06:00:19;92963.63;;;3.29
45976;BMP280;31696;42.668;23.322;2023-12-22T06:02:19;92973.03;;;3.34
45976;BMP280;31696;42.668;23.322;2023-12-22T06:04:20;92987.25;;;3.28
45976;BMP280;31696;42.668;23.322;2023-12-22T06:06:20;92975.09;;;3.21
45976;BMP280;31696;42.668;23.322;2023-12-22T06:08:21;92982.09;;;3.50
45976;BMP280;31696;42.668;23.322;2023-12-22T06:10:21;92984.00;;;3.65
45976;BMP280;31696;42.668;23.322;2023-12-22T06:12:21;92984.34;;;3.39
45976;BMP280;31696;42.668;23.322;2023-12-22T06:14:22;92980.56;;;3.55
45976;BMP280;31696;42.668;23.322;2023-12-22T06:16:22;92983.31;;;3.65
45976;BMP280;31696;42.668;23.322;2023-12-22T06:18:22;92981.94;;;3.56
45976;BMP280;31696;42.668;23.322;2023-12-22T06:20:23;92985.38;;;3.43
45976;BMP280;31696;42.668;23.322;2023-12-22T06:22:23;92993.41;;;3.70
45976;BMP280;31696;42.668;23.322;2023-12-22T06:24:23;92984.34;;;3.62
45976;BMP280;31696;42.668;23.322;2023-12-22T06:26:24;92996.50;;;3.46
45976;BMP280;31696;42.668;23.322;2023-12-22T06:28:24;92994.78;;;3.71
45976;BMP280;31696;42.668;23.322;2023-12-22T06:30:24;93009.31;;;3.61
45976;BMP280;31696;42.668;23.322;2023-12-22T06:32:25;92995.09;;;3.75
45976;BMP280;31696;42.668;23.322;2023-12-22T06:34:25;92994.78;;;3.56
45976;BMP280;31696;42.668;23.322;2023-12-22T06:36:25;92999.03;;;3.84
45976;BMP280;31696;42.668;23.322;2023-12-22T06:38:26;92995.63;;;3.74
45976;BMP280;31696;42.668;23.322;2023-12-22T06:40:26;93004.16;;;3.76
45976;BMP280;31696;42.668;23.322;2023-12-22T06:42:26;93005.19;;;3.73
45976;BMP280;31696;42.668;23.322;2023-12-22T06:44:27;93012.56;;;3.84
45976;BMP280;31696;42.668;23.322;2023-12-22T06:46:27;93009.81;;;3.75
45976;BMP280;31696;42.668;23.322;2023-12-22T06:48:29;92999.16;;;4.01
45976;BMP280;31696;42.668;23.322;2023-12-22T06:50:29;93004.16;;;3.99
45976;BMP280;31696;42.668;23.322;2023-12-22T06:52:30;93002.31;;;3.84
45976;BMP280;31696;42.668;23.322;2023-12-22T06:54:30;93005.84;;;3.96
45976;BMP280;31696;42.668;23.322;2023-12-22T06:56:31;93008.09;;;3.92
45976;BMP280;31696;42.668;23.322;2023-12-22T06:58:32;93011.50;;;3.95
45976;BMP280;31696;42.668;23.322;2023-12-22T07:00:32;93007.25;;;3.82
45976;BMP280;31696;42.668;23.322;2023-12-22T07:02:32;92993.75;;;3.89
45976;BMP280;31696;42.668;23.322;2023-12-22T07:07:06;93009.16;;;3.89
45976;BMP280;31696;42.668;23.322;2023-12-22T07:11:13;93007.88;;;4.06
45976;BMP280;31696;42.668;23.322;2023-12-22T07:13:13;93008.66;;;3.68
45976;BMP280;31696;42.668;23.322;2023-12-22T07:15:13;93008.06;;;4.08
45976;BMP280;31696;42.668;23.322;2023-12-22T07:17:14;93012.97;;;4.21
45976;BMP280;31696;42.668;23.322;2023-12-22T07:19:14;93016.78;;;4.20
45976;BMP280;31696;42.668;23.322;2023-12-22T07:21:17;93017.78;;;4.17
45976;BMP280;31696;42.668;23.322;2023-12-22T07:23:21;93024.69;;;4.14
45976;BMP280;31696;42.668;23.322;2023-12-22T07:25:22;93023.91;;;4.44
45976;BMP280;31696;42.668;23.322;2023-12-22T07:27:23;93023.94;;;4.29
45976;BMP280;31696;42.668;23.322;2023-12-22T07:29:23;93036.97;;;4.16
45976;BMP280;31696;42.668;23.322;2023-12-22T07:31:23;93037.66;;;4.24
45976;BMP280;31696;42.668;23.322;2023-12-22T07:33:24;93034.44;;;4.00
45976;BMP280;31696;42.668;23.322;2023-12-22T07:35:24;93026.41;;;4.04
45976;BMP280;31696;42.668;23.322;2023-12-22T07:37:24;93018.91;;;3.83
45976;BMP280;31696;42.668;23.322;2023-12-22T07:39:25;93027.06;;;4.12
45976;BMP280;31696;42.668;23.322;2023-12-22T07:41:25;93027.41;;;4.09
45976;BMP280;31696;42.668;23.322;2023-12-22T07:43:25;93031.44;;;4.49
45976;BMP280;31696;42.668;23.322;2023-12-22T07:45:26;93030.09;;;4.33
45976;BMP280;31696;42.668;23.322;2023-12-22T07:47:28;93038.50;;;4.34
45976;BMP280;31696;42.668;23.322;2023-12-22T07:49:29;93037.16;;;4.18
45976;BMP280;31696;42.668;23.322;2023-12-22T07:51:29;93050.91;;;4.60
45976;BMP280;31696;42.668;23.322;2023-12-22T07:53:29;93034.88;;;4.44
45976;BMP280;31696;42.668;23.322;2023-12-22T07:55:30;93053.00;;;4.54
45976;BMP280;31696;42.668;23.322;2023-12-22T07:57:30;93050.31;;;4.22
45976;BMP280;31696;42.668;23.322;2023-12-22T07:59:30;93067.28;;;4.17
45976;BMP280;31696;42.668;23.322;2023-12-22T08:01:31;93058.00;;;4.44
45976;BMP280;31696;42.668;23.322;2023-12-22T08:03:32;93059.94;;;4.06
45976;BMP280;31696;42.668;23.322;2023-12-22T08:05:32;93072.03;;;4.36
45976;BMP280;31696;42.668;23.322;2023-12-22T08:07:33;93082.53;;;4.23
45976;BMP280;31696;42.668;23.322;2023-12-22T08:09:33;93070.19;;;4.29
45976;BMP280;31696;42.668;23.322;2023-12-22T08:11:34;93071.88;;;4.49
45976;BMP280;31696;42.668;23.322;2023-12-22T08:13:34;93084.84;;;4.59
45976;BMP280;31696;42.668;23.322;2023-12-22T08:15:34;93086.78;;;4.51
45976;BMP280;31696;42.668;23.322;2023-12-22T08:17:35;93083.16;;;4.54
45976;BMP280;31696;42.668;23.322;2023-12-22T08:19:36;93087.44;;;4.36
45976;BMP280;31696;42.668;23.322;2023-12-22T08:21:36;93095.81;;;4.52
45976;BMP280;31696;42.668;23.322;2023-12-22T08:23:37;93096.47;;;4.67
45976;BMP280;31696;42.668;23.322;2023-12-22T08:25:37;93098.31;;;4.74
45976;BMP280;31696;42.668;23.322;2023-12-22T08:27:38;93099.56;;;4.58
45976;BMP280;31696;42.668;23.322;2023-12-22T08:29:39;93107.78;;;4.57
45976;BMP280;31696;42.668;23.322;2023-12-22T08:31:39;93102.19;;;4.43
45976;BMP280;31696;42.668;23.322;2023-12-22T08:33:39;93100.44;;;4.61
45976;BMP280;31696;42.668;23.322;2023-12-22T08:35:41;93106.56;;;4.80
45976;BMP280;31696;42.668;23.322;2023-12-22T08:37:42;93104.91;;;4.60
45976;BMP280;31696;42.668;23.322;2023-12-22T08:39:42;93093.59;;;4.56
45976;BMP280;31696;42.668;23.322;2023-12-22T08:41:43;93102.97;;;4.68
45976;BMP280;31696;42.668;23.322;2023-12-22T08:43:43;93090.63;;;4.67
45976;BMP280;31696;42.668;23.322;2023-12-22T08:45:44;93097.25;;;4.22
45976;BMP280;31696;42.668;23.322;2023-12-22T08:47:44;93092.41;;;4.49
45976;BMP280;31696;42.668;23.322;2023-12-22T08:49:44;93100.16;;;4.34
45976;BMP280;31696;42.668;23.322;2023-12-22T08:51:45;93095.13;;;4.66
45976;BMP280;31696;42.668;23.322;2023-12-22T08:53:45;93098.66;;;4.78
45976;BMP280;31696;42.668;23.322;2023-12-22T08:55:45;93088.88;;;4.77
45976;BMP280;31696;42.668;23.322;2023-12-22T08:57:46;93095.06;;;4.81
45976;BMP280;31696;42.668;23.322;2023-12-22T08:59:46;93097.09;;;4.83
45976;BMP280;31696;42.668;23.322;2023-12-22T09:01:46;93100.88;;;4.89
45976;BMP280;31696;42.668;23.322;2023-12-22T09:03:47;93102.78;;;4.81
45976;BMP280;31696;42.668;23.322;2023-12-22T09:05:48;93114.41;;;4.90
45976;BMP280;31696;42.668;23.322;2023-12-22T09:07:48;93108.63;;;4.67
45976;BMP280;31696;42.668;23.322;2023-12-22T09:09:48;93126.25;;;4.78
45976;BMP280;31696;42.668;23.322;2023-12-22T09:11:48;93110.81;;;4.85
45976;BMP280;31696;42.668;23.322;2023-12-22T09:13:49;93121.41;;;4.97
45976;BMP280;31696;42.668;23.322;2023-12-22T09:15:49;93128.28;;;5.27
45976;BMP280;31696;42.668;23.322;2023-12-22T09:17:50;93136.97;;;5.39
45976;BMP280;31696;42.668;23.322;2023-12-22T09:19:53;93129.97;;;5.00
45976;BMP280;31696;42.668;23.322;2023-12-22T09:21:53;93131.97;;;5.09
45976;BMP280;31696;42.668;23.322;2023-12-22T09:23:53;93131.84;;;5.39
45976;BMP280;31696;42.668;23.322;2023-12-22T09:25:54;93140.28;;;5.32
45976;BMP280;31696;42.668;23.322;2023-12-22T09:27:54;93144.50;;;5.44
45976;BMP280;31696;42.668;23.322;2023-12-22T09:29:55;93123.19;;;5.52
45976;BMP280;31696;42.668;23.322;2023-12-22T09:31:55;93133.06;;;5.38
45976;BMP280;31696;42.668;23.322;2023-12-22T09:33:56;93128.28;;;5.27
45976;BMP280;31696;42.668;23.322;2023-12-22T09:35:57;93124.06;;;5.22
45976;BMP280;31696;42.668;23.322;2023-12-22T09:37:57;93133.25;;;5.32
45976;BMP280;31696;42.668;23.322;2023-12-22T09:39:58;93127.47;;;5.24
45976;BMP280;31696;42.668;23.322;2023-12-22T09:42:00;93123.66;;;5.33
45976;BMP280;31696;42.668;23.322;2023-12-22T09:44:00;93109.72;;;5.36
45976;BMP280;31696;42.668;23.322;2023-12-22T09:46:02;93115.84;;;5.16
45976;BMP280;31696;42.668;23.322;2023-12-22T09:48:03;93113.75;;;5.22
45976;BMP280;31696;42.668;23.322;2023-12-22T09:50:04;93102.09;;;5.21
45976;BMP280;31696;42.668;23.322;2023-12-22T09:52:06;93108.13;;;5.48
45976;BMP280;31696;42.668;23.322;2023-12-22T09:54:07;93100.38;;;5.48
45976;BMP280;31696;42.668;23.322;2023-12-22T09:56:08;93107.53;;;5.25
45976;BMP280;31696;42.668;23.322;2023-12-22T09:58:09;93109.50;;;5.41
45976;BMP280;31696;42.668;23.322;2023-12-22T10:00:10;93100.59;;;5.42
45976;BMP280;31696;42.668;23.322;2023-12-22T10:02:12;93084.56;;;5.27
45976;BMP280;31696;42.668;23.322;2023-12-22T10:04:13;93093.69;;;5.45
45976;BMP280;31696;42.668;23.322;2023-12-22T10:06:14;93087.34;;;5.21
45976;BMP280;31696;42.668;23.322;2023-12-22T10:08:17;93086.41;;;5.02
45976;BMP280;31696;42.668;23.322;2023-12-22T10:10:18;93082.19;;;5.46
45976;BMP280;31696;42.668;23.322;2023-12-22T10:12:19;93092.66;;;5.48
45976;BMP280;31696;42.668;23.322;2023-12-22T10:14:20;93094.00;;;5.49
45976;BMP280;31696;42.668;23.322;2023-12-22T10:16:22;93088.13;;;5.56
45976;BMP280;31696;42.668;23.322;2023-12-22T10:18:23;93091.19;;;5.62
45976;BMP280;31696;42.668;23.322;2023-12-22T10:20:24;93071.50;;;5.74
45976;BMP280;31696;42.668;23.322;2023-12-22T10:22:24;93064.19;;;5.71
45976;BMP280;31696;42.668;23.322;2023-12-22T10:24:37;93056.47;;;5.88
45976;BMP280;31696;42.668;23.322;2023-12-22T10:26:39;93054.72;;;5.73
45976;BMP280;31696;42.668;23.322;2023-12-22T10:28:40;93059.88;;;5.90
45976;BMP280;31696;42.668;23.322;2023-12-22T10:30:41;93056.47;;;6.05
45976;BMP280;31696;42.668;23.322;2023-12-22T10:32:41;93045.97;;;6.28
45976;BMP280;31696;42.668;23.322;2023-12-22T10:34:42;93036.88;;;6.27
45976;BMP280;31696;42.668;23.322;2023-12-22T10:36:43;93047.63;;;6.50
45976;BMP280;31696;42.668;23.322;2023-12-22T10:38:43;93041.56;;;6.21
45976;BMP280;31696;42.668;23.322;2023-12-22T10:40:45;93041.34;;;6.09
45976;BMP280;31696;42.668;23.322;2023-12-22T10:42:45;93033.16;;;6.37
45976;BMP280;31696;42.668;23.322;2023-12-22T10:44:46;93030.25;;;6.51
45976;BMP280;31696;42.668;23.322;2023-12-22T10:46:46;93027.59;;;6.85
45976;BMP280;31696;42.668;23.322;2023-12-22T10:48:47;93022.03;;;6.62
45976;BMP280;31696;42.668;23.322;2023-12-22T10:50:48;93015.19;;;6.74
45976;BMP280;31696;42.668;23.322;2023-12-22T10:52:51;93000.94;;;7.09
45976;BMP280;31696;42.668;23.322;2023-12-22T10:54:51;93005.88;;;6.88
45976;BMP280;31696;42.668;23.322;2023-12-22T10:56:52;93006.75;;;7.00
45976;BMP280;31696;42.668;23.322;2023-12-22T10:58:52;93000.41;;;7.11
45976;BMP280;31696;42.668;23.322;2023-12-22T11:00:53;93003.97;;;7.25
45976;BMP280;31696;42.668;23.322;2023-12-22T11:02:56;93007.41;;;7.27
45976;BMP280;31696;42.668;23.322;2023-12-22T11:05:02;93002.09;;;7.35
45976;BMP280;31696;42.668;23.322;2023-12-22T11:07:05;92998.44;;;7.38
45976;BMP280;31696;42.668;23.322;2023-12-22T11:09:08;93001.84;;;7.40
45976;BMP280;31696;42.668;23.322;2023-12-22T11:11:23;92991.09;;;7.54
45976;BMP280;31696;42.668;23.322;2023-12-22T11:13:26;92982.59;;;7.61
45976;BMP280;31696;42.668;23.322;2023-12-22T11:15:26;92975.66;;;7.63
45976;BMP280;31696;42.668;23.322;2023-12-22T11:17:27;92957.00;;;7.65
45976;BMP280;31696;42.668;23.322;2023-12-22T11:19:28;92961.91;;;7.70
45976;BMP280;31696;42.668;23.322;2023-12-22T11:21:30;92959.34;;;7.80
45976;BMP280;31696;42.668;23.322;2023-12-22T11:23:31;92960.00;;;7.80
45976;BMP280;31696;42.668;23.322;2023-12-22T11:25:32;92949.41;;;7.76
45976;BMP280;31696;42.668;23.322;2023-12-22T11:27:33;92958.38;;;7.85
45976;BMP280;31696;42.668;23.322;2023-12-22T11:29:33;92953.34;;;7.87
45976;BMP280;31696;42.668;23.322;2023-12-22T11:31:35;92955.25;;;8.06
45976;BMP280;31696;42.668;23.322;2023-12-22T11:33:36;92970.31;;;8.19
45976;BMP280;31696;42.668;23.322;2023-12-22T11:35:37;92981.09;;;8.25
45976;BMP280;31696;42.668;23.322;2023-12-22T11:37:38;92976.84;;;8.20
45976;BMP280;31696;42.668;23.322;2023-12-22T11:39:41;92979.56;;;8.31
45976;BMP280;31696;42.668;23.322;2023-12-22T11:41:42;92975.91;;;8.25
45976;BMP280;31696;42.668;23.322;2023-12-22T11:43:43;92994.69;;;8.16
45976;BMP280;31696;42.668;23.322;2023-12-22T11:45:44;92996.84;;;8.29